Maersk Rosario — V2BG2 — position and weather

sailwx.info

Track history (hours):
 
Tides and Currents Weather Stations Pressure Air Temp Water Temp Dewpoint Dewpoint Depression Visibility Wind Speed Wind Dir Waves Ship Positions

Maersk Rosario

Last reported at 2018-Apr-24 14:21 UTC. Time now 2018-Apr-25 16:34 UTC.
Position N 39°26' W 000°13'.

Length 161.1 m; beam 25 m; draft 9.5 m.

Type: Cargo ship. MMSI: 304814000.

Date/timePositionNaut miles runAvg speedWind from/ knotsBaromVisibWave heightAir tempDewpointWater temp
2018-Apr-24 14:21N 39°26' W 000°13'  
2018-Apr-21 18:06N 37°44' W 000°22'115.3
2018-Apr-21 18:00N 37°42' W 000°23'815.5
2018-Apr-21 17:30N 37°36' W 000°29'815.4
2018-Apr-21 16:57N 37°30' W 000°36'715.5
2018-Apr-21 16:30N 37°25' W 000°42'1015.3
2018-Apr-21 15:50N 37°18' W 000°52'22514.8
2018-Apr-21 00:37N 36°04' W 005°17'215.7
2018-Apr-21 00:30N 36°03' W 005°19'611.6
2018-Apr-21 00:00N 36°07' W 005°24'6 0.3
2018-Apr-20 06:11N 36°02' W 005°20'315.1
2018-Apr-20 06:00N 36°01' W 005°17'  
2018-Apr-17 19:01N 37°22' W 000°51'315.8
2018-Apr-17 18:51N 37°24' W 000°49'1515.8
2018-Apr-17 17:55N 37°34' W 000°35'716.0
2018-Apr-17 17:29N 37°39' W 000°30'67813.4
2018-Apr-15 14:55N 36°28' E 013°35'815.6
2018-Apr-15 14:26N 36°24' E 013°43'612.0
2018-Apr-15 13:57N 36°21' E 013°49'816.5
2018-Apr-15 13:28N 36°17' E 013°58'715.0
2018-Apr-15 13:00N 36°14' E 014°06'815.4
2018-Apr-15 12:30N 36°10' E 014°14'815.9
2018-Apr-15 11:59N 36°06' E 014°23'815.9
2018-Apr-15 11:29N 36°00' E 014°30'612.5
2018-Apr-15 10:58N 35°56' E 014°36'0 0.3
2018-Apr-15 10:29N 35°56' E 014°36'0 0.2
2018-Apr-15 09:59N 35°56' E 014°36'0 0.5
2018-Apr-15 09:27N 35°56' E 014°36'0 0.4
2018-Apr-15 08:59N 35°56' E 014°36'0 0.6
2018-Apr-15 08:29N 35°56' E 014°37'0 0.4
2018-Apr-15 07:59N 35°56' E 014°37'4 8.6
2018-Apr-15 07:30N 35°52' E 014°37'1210.9
2018-Apr-15 06:22N 35°46' E 014°23'514.9
2018-Apr-15 06:00N 35°50' E 014°19'712.8
2018-Apr-15 05:29N 35°57' E 014°19'1 1.1
2018-Apr-15 05:00N 35°57' E 014°19'0 0.2
2018-Apr-15 04:29N 35°57' E 014°19'0 0.0
2018-Apr-15 04:00N 35°57' E 014°19'0 0.0
2018-Apr-15 03:26N 35°57' E 014°19'0 0.0
2018-Apr-15 03:00N 35°57' E 014°19'0 0.0
2018-Apr-15 02:28N 35°57' E 014°19'0 0.0
2018-Apr-15 02:00N 35°57' E 014°19'0 0.0
2018-Apr-15 01:29N 35°57' E 014°19'0 0.0
2018-Apr-15 01:01N 35°57' E 014°19'0 0.0
2018-Apr-15 00:28N 35°57' E 014°19'0 0.1
2018-Apr-14 23:59N 35°57' E 014°19'0 0.0
2018-Apr-14 23:28N 35°57' E 014°19'0 0.0
2018-Apr-14 23:00N 35°57' E 014°19'0 0.9
2018-Apr-14 22:30N 35°57' E 014°18'510.6
2018-Apr-14 21:59N 35°52' E 014°18'  
Track history (hours):
 
Tides and Currents Weather Stations Pressure Air Temp Water Temp Dewpoint Dewpoint Depression Visibility Wind Speed Wind Dir Waves Ship Positions

Maersk Rosario

Last reported at 2018-Apr-24 14:21 UTC. Time now 2018-Apr-25 16:34 UTC.
Position N 39°26' W 000°13'.

Length 161.1 m; beam 25 m; draft 9.5 m.

Type: Cargo ship. MMSI: 304814000.

Date/timePositionNaut miles runAvg speedWind from/ knotsBaromVisibWave heightAir tempDewpointWater temp
2018-Apr-24 14:21N 39°26' W 000°13'  
2018-Apr-21 18:06N 37°44' W 000°22'115.3
2018-Apr-21 18:00N 37°42' W 000°23'815.5
2018-Apr-21 17:30N 37°36' W 000°29'815.4
2018-Apr-21 16:57N 37°30' W 000°36'715.5
2018-Apr-21 16:30N 37°25' W 000°42'1015.3
2018-Apr-21 15:50N 37°18' W 000°52'22514.8
2018-Apr-21 00:37N 36°04' W 005°17'215.7
2018-Apr-21 00:30N 36°03' W 005°19'611.6
2018-Apr-21 00:00N 36°07' W 005°24'6 0.3
2018-Apr-20 06:11N 36°02' W 005°20'315.1
2018-Apr-20 06:00N 36°01' W 005°17'  
2018-Apr-17 19:01N 37°22' W 000°51'315.8
2018-Apr-17 18:51N 37°24' W 000°49'1515.8
2018-Apr-17 17:55N 37°34' W 000°35'716.0
2018-Apr-17 17:29N 37°39' W 000°30'67813.4
2018-Apr-15 14:55N 36°28' E 013°35'815.6
2018-Apr-15 14:26N 36°24' E 013°43'612.0
2018-Apr-15 13:57N 36°21' E 013°49'816.5
2018-Apr-15 13:28N 36°17' E 013°58'715.0
2018-Apr-15 13:00N 36°14' E 014°06'815.4
2018-Apr-15 12:30N 36°10' E 014°14'815.9
2018-Apr-15 11:59N 36°06' E 014°23'815.9
2018-Apr-15 11:29N 36°00' E 014°30'612.5
2018-Apr-15 10:58N 35°56' E 014°36'0 0.3
2018-Apr-15 10:29N 35°56' E 014°36'0 0.2
2018-Apr-15 09:59N 35°56' E 014°36'0 0.5
2018-Apr-15 09:27N 35°56' E 014°36'0 0.4
2018-Apr-15 08:59N 35°56' E 014°36'0 0.6
2018-Apr-15 08:29N 35°56' E 014°37'0 0.4
2018-Apr-15 07:59N 35°56' E 014°37'4 8.6
2018-Apr-15 07:30N 35°52' E 014°37'1210.9
2018-Apr-15 06:22N 35°46' E 014°23'514.9
2018-Apr-15 06:00N 35°50' E 014°19'712.8
2018-Apr-15 05:29N 35°57' E 014°19'1 1.1
2018-Apr-15 05:00N 35°57' E 014°19'0 0.2
2018-Apr-15 04:29N 35°57' E 014°19'0 0.0
2018-Apr-15 04:00N 35°57' E 014°19'0 0.0
2018-Apr-15 03:26N 35°57' E 014°19'0 0.0
2018-Apr-15 03:00N 35°57' E 014°19'0 0.0
2018-Apr-15 02:28N 35°57' E 014°19'0 0.0
2018-Apr-15 02:00N 35°57' E 014°19'0 0.0
2018-Apr-15 01:29N 35°57' E 014°19'0 0.0
2018-Apr-15 01:01N 35°57' E 014°19'0 0.0
2018-Apr-15 00:28N 35°57' E 014°19'0 0.1
2018-Apr-14 23:59N 35°57' E 014°19'0 0.0
2018-Apr-14 23:28N 35°57' E 014°19'0 0.0
2018-Apr-14 23:00N 35°57' E 014°19'0 0.9
2018-Apr-14 22:30N 35°57' E 014°18'510.6
2018-Apr-14 21:59N 35°52' E 014°18'  

Dump ship's entire track history